Time;durP1;ratioP1;P1;durP2;ratioP2;P2;SDS_P1;SDS_P2;PMS_P1;PMS_P2;Temp;Humidity;BMP_temperature;BMP_pressure;BME280_temperature;BME280_humidity;BME280_pressure;Samples;Min_cycle;Max_cycle;Signal;HPM_P1;HPM_P2
2024/02/02 00:00:09;;;;;;;;;;;;;;;-0.16;100.00;97834.61;110280;1238;69166;-62
2024/02/02 00:02:58;;;;;;;;;;;;;;;-0.17;100.00;97841.15;110608;1242;70964;-61
2024/02/02 00:05:27;;;;;;;;;;;;;;;-0.15;100.00;97841.77;110470;1248;59663;-61
2024/02/02 00:07:55;;;;;;;;;;;;;;;-0.14;100.00;97838.16;110461;1241;59665;-63
2024/02/02 00:10:27;;;;;;;;;;;;;;;-0.14;100.00;97838.84;110591;1240;70591;-61
2024/02/02 00:12:56;;;;;;;;;;;;;;;-0.11;100.00;97838.41;110491;1242;69576;-62
2024/02/02 00:15:25;;;;;;;;;;;;;;;-0.09;100.00;97838.55;110614;1242;69709;-62
2024/02/02 00:17:55;;;;;;;;;;;;;;;-0.08;100.00;97839.02;110439;1240;59747;-61
2024/02/02 00:20:24;;;;;;;;;;;;;;;-0.10;100.00;97842.35;110401;1247;59636;-62
2024/02/02 00:22:53;;;;;;;;;;;;;;;-0.07;100.00;97846.56;110367;1238;71498;-61
2024/02/02 00:25:25;;;;;;;;;;;;;;;-0.06;100.00;97843.43;110400;1241;69187;-61
2024/02/02 00:27:54;;;;;;;;;;;;;;;-0.06;100.00;97848.06;110394;1241;69990;-62
2024/02/02 00:30:23;;;;;;;;;;;;;;;-0.06;100.00;97849.77;110430;1238;59711;-61
2024/02/02 00:32:53;;;;;;;;;;;;;;;-0.05;100.00;97850.29;110401;1249;59679;-61
2024/02/02 00:35:22;;;;;;;;;;;;;;;-0.04;100.00;97850.09;110434;1238;71193;-61
2024/02/02 00:37:51;;;;;;;;;;;;;;;-0.03;100.00;97848.52;110402;1243;69228;-61
2024/02/02 00:40:22;;;;;;;;;;;;;;;-0.06;100.00;97852.88;110423;1240;69899;-62
2024/02/02 00:42:51;;;;;;;;;;;;;;;-0.09;100.00;97856.71;110389;1241;59747;-61
2024/02/02 00:45:21;;;;;;;;;;;;;;;-0.10;100.00;97856.20;110375;1241;59743;-61
2024/02/02 00:47:50;;;;;;;;;;;;;;;-0.13;100.00;97855.60;110404;1242;71661;-61
2024/02/02 00:50:19;;;;;;;;;;;;;;;-0.18;100.00;97859.48;110397;1241;69195;-61
2024/02/02 00:52:48;;;;;;;;;;;;;;;-0.22;100.00;97855.98;110503;1243;69239;-61
2024/02/02 00:55:17;;;;;;;;;;;;;;;-0.22;100.00;97853.76;110593;1246;59754;-61
2024/02/02 00:57:46;;;;;;;;;;;;;;;-0.19;100.00;97850.43;110631;1239;59713;-62
2024/02/02 01:00:15;;;;;;;;;;;;;;;-0.19;100.00;97849.92;110602;1245;71560;-61
2024/02/02 01:02:44;;;;;;;;;;;;;;;-0.20;100.00;97848.92;110616;1239;69694;-61
2024/02/02 01:05:14;;;;;;;;;;;;;;;-0.27;100.00;97850.11;110622;1246;69252;-62
2024/02/02 01:07:43;;;;;;;;;;;;;;;-0.33;100.00;97849.88;110637;1240;60129;-62
2024/02/02 01:10:16;;;;;;;;;;;;;;;-0.32;100.00;97849.20;110621;1239;60050;-61
2024/02/02 01:12:46;;;;;;;;;;;;;;;-0.32;100.00;97844.75;110628;1239;72098;-61
2024/02/02 01:15:16;;;;;;;;;;;;;;;-0.34;100.00;97843.91;110615;1241;68292;-61
2024/02/02 01:17:45;;;;;;;;;;;;;;;-0.35;100.00;97843.27;110407;1239;69808;-61
2024/02/02 01:20:15;;;;;;;;;;;;;;;-0.32;100.00;97843.02;110387;1242;59657;-61
2024/02/02 01:22:44;;;;;;;;;;;;;;;-0.31;100.00;97841.44;110444;1242;59664;-61
2024/02/02 01:25:14;;;;;;;;;;;;;;;-0.29;100.00;97840.55;110425;1241;71932;-62
2024/02/02 01:27:44;;;;;;;;;;;;;;;-0.26;100.00;97834.32;110394;1248;69735;-61
2024/02/02 01:30:13;;;;;;;;;;;;;;;-0.25;100.00;97836.36;110420;1238;69102;-61
2024/02/02 01:32:42;;;;;;;;;;;;;;;-0.27;100.00;97830.57;110349;1244;59728;-61
2024/02/02 01:35:11;;;;;;;;;;;;;;;-0.29;100.00;97828.23;110389;1242;59734;-62
2024/02/02 01:37:40;;;;;;;;;;;;;;;-0.31;100.00;97830.83;110337;1241;71836;-62
2024/02/02 01:40:10;;;;;;;;;;;;;;;-0.31;100.00;97831.19;110373;1241;69833;-62
2024/02/02 01:42:39;;;;;;;;;;;;;;;-0.33;100.00;97833.96;110401;1237;69089;-62
2024/02/02 01:45:08;;;;;;;;;;;;;;;-0.33;100.00;97838.24;110358;1240;59705;-62
2024/02/02 01:47:37;;;;;;;;;;;;;;;-0.33;100.00;97831.39;110366;1239;59673;-62
2024/02/02 01:50:07;;;;;;;;;;;;;;;-0.36;100.00;97837.97;110438;1245;71898;-62
2024/02/02 01:52:36;;;;;;;;;;;;;;;-0.41;100.00;97835.67;110306;1242;69914;-62
2024/02/02 01:55:05;;;;;;;;;;;;;;;-0.41;100.00;97834.33;110421;1244;69608;-62
2024/02/02 01:57:34;;;;;;;;;;;;;;;-0.43;100.00;97843.95;110539;1239;59727;-62
2024/02/02 02:00:04;;;;;;;;;;;;;;;-0.53;100.00;97849.64;110414;1239;59670;-62
2024/02/02 02:02:37;;;;;;;;;;;;;;;-0.52;100.00;97851.16;110383;1241;71384;-62
2024/02/02 02:05:06;;;;;;;;;;;;;;;-0.48;100.00;97849.21;110406;1241;69755;-62
2024/02/02 02:07:35;;;;;;;;;;;;;;;-0.48;100.00;97846.81;110457;1238;69416;-62
2024/02/02 02:10:04;;;;;;;;;;;;;;;-0.45;100.00;97850.49;110410;1239;60059;-62
2024/02/02 02:12:33;;;;;;;;;;;;;;;-0.44;100.00;97853.06;110456;1242;60079;-62
2024/02/02 02:15:03;;;;;;;;;;;;;;;-0.43;100.00;97851.33;110444;1239;71251;-62
2024/02/02 02:17:32;;;;;;;;;;;;;;;-0.42;100.00;97853.85;110624;1239;68818;-62
2024/02/02 02:20:01;;;;;;;;;;;;;;;-0.41;100.00;97858.29;110634;1239;69208;-62
2024/02/02 02:22:30;;;;;;;;;;;;;;;-0.41;100.00;97860.18;110726;1238;59699;-62
2024/02/02 02:24:59;;;;;;;;;;;;;;;-0.43;100.00;97861.77;110740;1239;59677;-62
2024/02/02 02:27:28;;;;;;;;;;;;;;;-0.45;100.00;97858.91;110685;1239;71264;-62
2024/02/02 02:29:58;;;;;;;;;;;;;;;-0.45;100.00;97856.34;110491;1238;67550;-62
2024/02/02 02:32:26;;;;;;;;;;;;;;;-0.42;100.00;97864.14;110627;1239;69864;-63
2024/02/02 02:34:56;;;;;;;;;;;;;;;-0.46;100.00;97864.06;110490;1241;59785;-62
2024/02/02 02:37:25;;;;;;;;;;;;;;;-0.45;100.00;97860.61;110668;1239;59645;-62
2024/02/02 02:39:54;;;;;;;;;;;;;;;-0.41;100.00;97862.58;110459;1241;72317;-63
2024/02/02 02:42:22;;;;;;;;;;;;;;;-0.37;100.00;97860.94;110427;1238;68593;-63
2024/02/02 02:44:52;;;;;;;;;;;;;;;-0.36;100.00;97860.23;110513;1239;68840;-63
2024/02/02 02:47:20;;;;;;;;;;;;;;;-0.42;100.00;97866.02;110427;1238;59759;-63
2024/02/02 02:49:49;;;;;;;;;;;;;;;-0.42;100.00;97868.09;110461;1241;59636;-63
2024/02/02 02:52:18;;;;;;;;;;;;;;;-0.41;100.00;97863.78;110481;1240;71952;-63
2024/02/02 02:54:47;;;;;;;;;;;;;;;-0.33;100.00;97860.33;110498;1240;69133;-63
2024/02/02 02:57:16;;;;;;;;;;;;;;;-0.33;100.00;97857.77;110433;1241;69078;-62
2024/02/02 02:59:45;;;;;;;;;;;;;;;-0.34;100.00;97854.54;110438;1241;59740;-62
2024/02/02 03:02:14;;;;;;;;;;;;;;;-0.44;100.00;97856.30;110484;1240;59670;-62
2024/02/02 03:04:43;;;;;;;;;;;;;;;-0.47;100.00;97870.41;110533;1245;71186;-64
2024/02/02 03:07:12;;;;;;;;;;;;;;;-0.51;100.00;97874.94;110496;1241;68375;-62
2024/02/02 03:09:41;;;;;;;;;;;;;;;-0.41;100.00;97893.07;110510;1242;69736;-63
2024/02/02 03:12:10;;;;;;;;;;;;;;;-0.45;100.00;97885.42;110414;1242;59693;-62
2024/02/02 03:14:40;;;;;;;;;;;;;;;-0.41;100.00;97887.41;110442;1241;59694;-63
2024/02/02 03:17:08;;;;;;;;;;;;;;;-0.36;100.00;97893.30;110488;1239;71007;-62
2024/02/02 03:19:37;;;;;;;;;;;;;;;-0.33;100.00;97885.02;110665;1238;69168;-63
2024/02/02 03:22:08;;;;;;;;;;;;;;;-0.29;100.00;97890.23;110452;1241;69372;-64
2024/02/02 03:24:37;;;;;;;;;;;;;;;-0.32;100.00;97890.45;110426;1238;59680;-63
2024/02/02 03:27:06;;;;;;;;;;;;;;;-0.26;100.00;97892.56;110452;1241;59768;-63
2024/02/02 03:29:35;;;;;;;;;;;;;;;-0.28;100.00;97883.52;110451;1239;71260;-61
2024/02/02 03:32:04;;;;;;;;;;;;;;;-0.30;100.00;97884.43;110517;1240;70124;-61
2024/02/02 03:34:33;;;;;;;;;;;;;;;-0.28;100.00;97888.50;110517;1242;68345;-61
2024/02/02 03:37:02;;;;;;;;;;;;;;;-0.24;100.00;97884.63;110514;1241;59747;-62
2024/02/02 03:39:32;;;;;;;;;;;;;;;-0.25;100.00;97882.96;110560;1242;59673;-63
2024/02/02 03:42:02;;;;;;;;;;;;;;;-0.23;100.00;97863.73;110500;1239;70585;-63
2024/02/02 03:44:31;;;;;;;;;;;;;;;-0.21;100.00;97853.39;110460;1241;69806;-62
2024/02/02 03:47:00;;;;;;;;;;;;;;;-0.19;100.00;97850.43;110456;1246;69650;-62
2024/02/02 03:49:29;;;;;;;;;;;;;;;-0.18;100.00;97859.66;110482;1239;59654;-62
2024/02/02 03:52:05;;;;;;;;;;;;;;;-0.21;100.00;97863.66;110515;1240;59732;-62
2024/02/02 03:54:34;;;;;;;;;;;;;;;-0.18;100.00;97867.55;110567;1239;71207;-62
2024/02/02 03:57:04;;;;;;;;;;;;;;;-0.16;100.00;97858.92;110702;1241;69804;-63
2024/02/02 03:59:32;;;;;;;;;;;;;;;-0.13;100.00;97859.21;110463;1239;69837;-63
2024/02/02 04:02:01;;;;;;;;;;;;;;;-0.14;100.00;97863.85;110488;1249;59766;-63
2024/02/02 04:04:31;;;;;;;;;;;;;;;-0.12;100.00;97879.91;110491;1239;59678;-63
2024/02/02 04:07:01;;;;;;;;;;;;;;;-0.09;100.00;97899.90;110472;1239;71315;-63
2024/02/02 04:09:30;;;;;;;;;;;;;;;-0.08;100.00;97898.84;110498;1240;69080;-61
2024/02/02 04:11:59;;;;;;;;;;;;;;;-0.07;100.00;97896.05;110461;1239;68365;-61
2024/02/02 04:14:28;;;;;;;;;;;;;;;-0.05;100.00;97903.23;110513;1239;59666;-62
2024/02/02 04:16:57;;;;;;;;;;;;;;;-0.02;100.00;97912.08;110471;1240;59738;-61
2024/02/02 04:19:25;;;;;;;;;;;;;;;-0.02;100.00;97915.14;110467;1238;71988;-62
2024/02/02 04:21:55;;;;;;;;;;;;;;;-0.03;100.00;97913.11;110547;1241;69051;-62
2024/02/02 04:24:23;;;;;;;;;;;;;;;-0.02;100.00;97916.18;110457;1238;69575;-62
2024/02/02 04:26:52;;;;;;;;;;;;;;;-0.03;100.00;97923.06;110438;1241;59678;-62
2024/02/02 04:29:21;;;;;;;;;;;;;;;-0.08;100.00;97927.45;110401;1241;59662;-62
2024/02/02 04:31:50;;;;;;;;;;;;;;;-0.09;100.00;97929.54;110474;1238;70934;-61
2024/02/02 04:34:19;;;;;;;;;;;;;;;-0.08;100.00;97931.39;110377;1238;69687;-62
2024/02/02 04:36:48;;;;;;;;;;;;;;;-0.06;100.00;97931.18;110359;1242;69919;-62
2024/02/02 04:39:17;;;;;;;;;;;;;;;-0.07;100.00;97931.19;110369;1243;59724;-62
2024/02/02 04:41:46;;;;;;;;;;;;;;;-0.04;100.00;97936.11;110377;1242;59680;-62
2024/02/02 04:44:15;;;;;;;;;;;;;;;-0.02;100.00;97937.59;110339;1241;71210;-62
2024/02/02 04:46:43;;;;;;;;;;;;;;;-0.02;100.00;97927.49;110370;1242;69232;-62
2024/02/02 04:49:12;;;;;;;;;;;;;;;-0.02;100.00;97918.91;110381;1241;69253;-61
2024/02/02 04:51:41;;;;;;;;;;;;;;;-0.04;100.00;97932.17;110372;1248;59763;-62
2024/02/02 04:54:10;;;;;;;;;;;;;;;-0.13;100.00;97932.36;110406;1238;59689;-62
2024/02/02 04:56:39;;;;;;;;;;;;;;;-0.22;100.00;97933.06;110389;1241;71314;-62
2024/02/02 04:59:08;;;;;;;;;;;;;;;-0.23;100.00;97932.24;110409;1242;69910;-62
2024/02/02 05:01:37;;;;;;;;;;;;;;;-0.30;100.00;97930.33;110357;1238;69589;-62
2024/02/02 05:04:06;;;;;;;;;;;;;;;-0.33;100.00;97934.67;110373;1239;59744;-62
2024/02/02 05:06:35;;;;;;;;;;;;;;;-0.31;100.00;97934.80;110368;1241;59635;-62
2024/02/02 05:09:04;;;;;;;;;;;;;;;-0.28;100.00;97940.73;110353;1238;71204;-62
2024/02/02 05:11:33;;;;;;;;;;;;;;;-0.23;100.00;97951.95;110393;1240;69858;-62
2024/02/02 05:14:02;;;;;;;;;;;;;;;-0.20;100.00;97967.45;110405;1240;68823;-62
2024/02/02 05:16:31;;;;;;;;;;;;;;;-0.17;100.00;97970.83;110365;1240;59755;-62
2024/02/02 05:19:00;;;;;;;;;;;;;;;-0.17;100.00;97972.19;110435;1238;60113;-62
2024/02/02 05:21:29;;;;;;;;;;;;;;;-0.17;100.00;97976.65;110365;1240;71154;-63
2024/02/02 05:23:58;;;;;;;;;;;;;;;-0.17;100.00;97978.90;110426;1238;69919;-62
2024/02/02 05:26:47;;;;;;;;;;;;;;;-0.19;100.00;97976.36;110399;1241;69662;-62
2024/02/02 05:29:16;;;;;;;;;;;;;;;-0.21;100.00;97976.39;110212;1243;59710;-63
2024/02/02 05:31:45;;;;;;;;;;;;;;;-0.25;100.00;97976.30;110256;1241;59643;-63
2024/02/02 05:34:14;;;;;;;;;;;;;;;-0.27;100.00;97968.46;110336;1241;70427;-63
2024/02/02 05:36:44;;;;;;;;;;;;;;;-0.28;100.00;97966.41;110282;1241;69050;-63
2024/02/02 05:39:13;;;;;;;;;;;;;;;-0.31;100.00;97969.58;110247;1242;68325;-63
2024/02/02 05:41:42;;;;;;;;;;;;;;;-0.26;100.00;97982.67;110178;1241;59675;-63
2024/02/02 05:44:11;;;;;;;;;;;;;;;-0.21;100.00;97988.05;110238;1240;59744;-63
2024/02/02 05:46:40;;;;;;;;;;;;;;;-0.19;100.00;97990.74;110155;1238;72004;-63
2024/02/02 05:49:09;;;;;;;;;;;;;;;-0.20;100.00;97993.51;110420;1238;68508;-63
2024/02/02 05:51:37;;;;;;;;;;;;;;;-0.17;100.00;97994.82;110546;1243;69224;-63
2024/02/02 05:54:06;;;;;;;;;;;;;;;-0.18;100.00;97994.84;110408;1242;59703;-63
2024/02/02 05:56:35;;;;;;;;;;;;;;;-0.16;100.00;97992.05;110400;1238;59690;-63
2024/02/02 05:59:04;;;;;;;;;;;;;;;-0.14;100.00;97992.01;110259;1241;71984;-63
2024/02/02 06:01:33;;;;;;;;;;;;;;;-0.12;100.00;97999.52;110346;1238;68173;-63
2024/02/02 06:04:02;;;;;;;;;;;;;;;-0.11;100.00;98007.02;110334;1238;69032;-63
2024/02/02 06:06:31;;;;;;;;;;;;;;;-0.09;100.00;98007.15;110391;1240;59627;-63
2024/02/02 06:09:00;;;;;;;;;;;;;;;-0.09;100.00;98003.73;110378;1239;59602;-63
2024/02/02 06:11:29;;;;;;;;;;;;;;;-0.08;100.00;98003.19;110139;1242;72097;-63
2024/02/02 06:13:58;;;;;;;;;;;;;;;-0.07;100.00;98000.61;110210;1241;69800;-63
2024/02/02 06:16:27;;;;;;;;;;;;;;;-0.08;100.00;98003.52;110227;1241;69645;-63
2024/02/02 06:18:56;;;;;;;;;;;;;;;-0.11;100.00;98005.48;110289;1241;59710;-63
2024/02/02 06:21:25;;;;;;;;;;;;;;;-0.17;100.00;98008.34;110536;1238;59709;-63
2024/02/02 06:23:54;;;;;;;;;;;;;;;-0.27;100.00;98007.67;110530;1238;71369;-63
2024/02/02 06:26:23;;;;;;;;;;;;;;;-0.30;100.00;98011.68;110491;1241;68040;-63
2024/02/02 06:28:52;;;;;;;;;;;;;;;-0.32;100.00;98014.46;110605;1238;69763;-63
2024/02/02 06:31:24;;;;;;;;;;;;;;;-0.27;100.00;98020.88;110458;1240;59814;-63
2024/02/02 06:33:53;;;;;;;;;;;;;;;-0.26;100.00;98019.84;110496;1241;59687;-63
2024/02/02 06:36:27;;;;;;;;;;;;;;;-0.29;100.00;98018.85;110515;1238;70365;-63
2024/02/02 06:38:56;;;;;;;;;;;;;;;-0.25;100.00;98015.52;110459;1238;69102;-64
2024/02/02 06:41:25;;;;;;;;;;;;;;;-0.23;100.00;98012.76;110497;1247;69837;-61
2024/02/02 06:43:54;;;;;;;;;;;;;;;-0.18;100.00;98008.89;110472;1241;59714;-61
2024/02/02 06:46:23;;;;;;;;;;;;;;;-0.17;100.00;98014.86;110450;1240;59941;-61
2024/02/02 06:48:52;;;;;;;;;;;;;;;-0.16;100.00;98016.38;110560;1241;71392;-61
2024/02/02 06:51:21;;;;;;;;;;;;;;;-0.18;100.00;98020.70;110493;1241;69451;-61
2024/02/02 06:53:51;;;;;;;;;;;;;;;-0.16;100.00;98022.19;110373;1238;69253;-62
2024/02/02 06:56:26;;;;;;;;;;;;;;;-0.12;100.00;98024.52;110399;1238;59709;-61
2024/02/02 06:58:56;;;;;;;;;;;;;;;-0.09;100.00;98027.37;110432;1241;59728;-61
2024/02/02 07:01:25;;;;;;;;;;;;;;;-0.00;100.00;98032.67;110714;1239;71491;-62
2024/02/02 07:03:54;;;;;;;;;;;;;;;0.04;100.00;98037.02;110497;1239;69720;-61
2024/02/02 07:06:24;;;;;;;;;;;;;;;0.07;100.00;98031.85;110622;1239;69748;-61
2024/02/02 07:08:56;;;;;;;;;;;;;;;0.07;100.00;98027.38;110391;1248;59762;-61
2024/02/02 07:11:45;;;;;;;;;;;;;;;0.08;100.00;98027.36;110442;1238;59682;-62
2024/02/02 07:14:31;;;;;;;;;;;;;;;0.05;100.00;98030.84;110438;1238;71144;-62
2024/02/02 07:16:59;;;;;;;;;;;;;;;0.07;100.00;98029.09;110545;1241;69889;-62
2024/02/02 07:19:39;;;;;;;;;;;;;;;0.11;100.00;98027.13;110491;1241;69864;-62
2024/02/02 07:22:27;;;;;;;;;;;;;;;0.10;100.00;98028.68;110403;1241;59677;-62
2024/02/02 07:24:57;;;;;;;;;;;;;;;0.07;100.00;98040.58;110367;1241;59666;-62
2024/02/02 07:27:42;;;;;;;;;;;;;;;0.03;100.00;98067.91;110430;1240;71159;-62
2024/02/02 07:30:26;;;;;;;;;;;;;;;0.17;100.00;98089.40;110372;1244;69630;-62
2024/02/02 07:32:55;;;;;;;;;;;;;;;0.21;100.00;98093.08;110363;1238;69402;-62
2024/02/02 07:35:27;;;;;;;;;;;;;;;0.25;100.00;98094.04;110406;1240;59748;-63
2024/02/02 07:37:56;;;;;;;;;;;;;;;0.22;100.00;98089.45;110597;1240;59677;-63
2024/02/02 07:40:44;;;;;;;;;;;;;;;0.28;100.00;98096.02;110462;1237;71342;-62
2024/02/02 07:43:13;;;;;;;;;;;;;;;0.29;100.00;98099.61;110460;1238;68079;-62
2024/02/02 07:45:41;;;;;;;;;;;;;;;0.17;100.00;98094.02;110381;1240;69823;-63
2024/02/02 07:48:10;;;;;;;;;;;;;;;0.30;100.00;98087.76;110415;1238;59684;-63
2024/02/02 07:50:39;;;;;;;;;;;;;;;0.37;100.00;98087.44;110394;1240;59671;-62
2024/02/02 07:53:08;;;;;;;;;;;;;;;0.42;100.00;98082.69;110415;1240;72608;-62
2024/02/02 07:55:39;;;;;;;;;;;;;;;0.51;100.00;98092.62;110385;1240;69051;-63
2024/02/02 07:58:08;;;;;;;;;;;;;;;0.60;100.00;98093.79;110398;1241;69120;-63
2024/02/02 08:00:37;;;;;;;;;;;;;;;0.69;100.00;98093.61;110447;1241;59676;-63
2024/02/02 08:03:06;;;;;;;;;;;;;;;0.77;100.00;98091.70;110518;1240;59631;-63
2024/02/02 08:05:40;;;;;;;;;;;;;;;0.85;100.00;98088.08;110517;1241;71695;-63
2024/02/02 08:08:09;;;;;;;;;;;;;;;0.92;100.00;98089.29;110630;1238;70192;-63
2024/02/02 08:10:41;;;;;;;;;;;;;;;0.91;100.00;98083.14;110548;1237;68228;-63
2024/02/02 08:13:10;;;;;;;;;;;;;;;0.93;100.00;98083.96;110566;1239;59690;-63
2024/02/02 08:15:41;;;;;;;;;;;;;;;0.90;100.00;98093.11;110580;1241;60046;-63
2024/02/02 08:18:10;;;;;;;;;;;;;;;0.94;100.00;98095.59;110474;1238;70756;-62
2024/02/02 08:20:40;;;;;;;;;;;;;;;1.04;100.00;98096.23;110421;1241;69838;-63
2024/02/02 08:23:10;;;;;;;;;;;;;;;1.14;100.00;98094.11;110384;1238;70169;-63
2024/02/02 08:25:39;;;;;;;;;;;;;;;1.18;100.00;98099.16;110382;1240;59718;-63
2024/02/02 08:28:08;;;;;;;;;;;;;;;1.23;100.00;98104.86;110403;1240;59668;-63
2024/02/02 08:30:38;;;;;;;;;;;;;;;1.25;100.00;98107.23;110423;1238;72044;-63
2024/02/02 08:33:07;;;;;;;;;;;;;;;1.25;100.00;98108.26;110403;1240;69776;-63
2024/02/02 08:35:37;;;;;;;;;;;;;;;1.30;100.00;98114.84;110346;1238;68698;-63
2024/02/02 08:38:07;;;;;;;;;;;;;;;1.38;100.00;98116.86;110401;1240;59673;-63
2024/02/02 08:40:42;;;;;;;;;;;;;;;1.42;100.00;98119.33;110388;1238;59667;-62
2024/02/02 08:43:22;;;;;;;;;;;;;;;1.52;100.00;98127.52;110471;1241;71219;-62
2024/02/02 08:45:57;;;;;;;;;;;;;;;1.62;100.00;98130.34;110548;1240;68345;-63
2024/02/02 08:48:40;;;;;;;;;;;;;;;1.71;100.00;98125.98;110359;1238;69723;-63
2024/02/02 08:51:22;;;;;;;;;;;;;;;1.76;100.00;98129.31;110397;1240;59738;-63
2024/02/02 08:54:12;;;;;;;;;;;;;;;1.79;100.00;98133.02;110393;1242;59691;-63
2024/02/02 08:57:01;;;;;;;;;;;;;;;1.85;100.00;98138.35;110433;1241;71496;-63
2024/02/02 08:59:39;;;;;;;;;;;;;;;2.01;100.00;98136.88;110394;1240;68516;-63
2024/02/02 09:02:12;;;;;;;;;;;;;;;2.11;100.00;98136.60;110378;1237;69196;-63
2024/02/02 09:04:51;;;;;;;;;;;;;;;2.01;100.00;98135.85;110399;1238;59734;-63
2024/02/02 09:07:21;;;;;;;;;;;;;;;2.11;100.00;98136.45;110424;1240;59683;-63
2024/02/02 09:09:51;;;;;;;;;;;;;;;2.19;100.00;98143.29;110416;1242;72319;-62
2024/02/02 09:12:24;;;;;;;;;;;;;;;2.24;100.00;98146.23;110435;1241;69833;-62
2024/02/02 09:14:53;;;;;;;;;;;;;;;2.17;100.00;98142.45;110519;1241;69062;-62
2024/02/02 09:17:25;;;;;;;;;;;;;;;2.20;100.00;98145.14;110518;1241;60700;-62
2024/02/02 09:19:55;;;;;;;;;;;;;;;2.31;100.00;98146.20;110522;1237;59702;-62
2024/02/02 09:22:27;;;;;;;;;;;;;;;2.35;100.00;98149.86;110577;1238;72078;-63
2024/02/02 09:24:56;;;;;;;;;;;;;;;2.42;100.00;98146.07;110512;1238;69151;-63
2024/02/02 09:27:32;;;;;;;;;;;;;;;2.44;100.00;98142.89;110505;1239;69732;-62
2024/02/02 09:30:12;;;;;;;;;;;;;;;2.47;100.00;98139.55;110577;1240;59729;-62
2024/02/02 09:32:40;;;;;;;;;;;;;;;2.53;100.00;98137.48;110476;1241;59692;-62
2024/02/02 09:35:30;;;;;;;;;;;;;;;2.60;100.00;98136.61;110524;1240;71287;-62
2024/02/02 09:37:59;;;;;;;;;;;;;;;2.63;100.00;98145.64;110427;1238;69062;-62
2024/02/02 09:41:01;;;;;;;;;;;;;;;2.63;100.00;98145.83;110389;1241;69240;-62
2024/02/02 09:43:36;;;;;;;;;;;;;;;2.68;100.00;98143.60;110532;1241;59725;-62
2024/02/02 09:46:11;;;;;;;;;;;;;;;2.75;100.00;98145.63;110421;1241;59737;-63
2024/02/02 09:48:59;;;;;;;;;;;;;;;2.75;100.00;98148.38;110483;1242;70886;-62
2024/02/02 09:51:38;;;;;;;;;;;;;;;2.74;100.00;98136.54;110509;1241;69299;-62
2024/02/02 09:54:10;;;;;;;;;;;;;;;2.82;100.00;98138.17;110479;1241;69164;-62
2024/02/02 09:56:54;;;;;;;;;;;;;;;2.88;100.00;98136.45;110474;1241;59614;-61
2024/02/02 09:59:23;;;;;;;;;;;;;;;3.01;100.00;98133.99;110381;1237;59686;-62
2024/02/02 10:01:56;;;;;;;;;;;;;;;2.98;100.00;98134.95;110508;1237;70851;-62
2024/02/02 10:04:35;;;;;;;;;;;;;;;2.92;100.00;98133.08;110352;1238;69042;-62
2024/02/02 10:07:08;;;;;;;;;;;;;;;2.91;100.00;98137.23;110336;1241;69292;-62
2024/02/02 10:09:50;;;;;;;;;;;;;;;2.89;100.00;98137.46;110368;1241;59741;-63
2024/02/02 10:12:30;;;;;;;;;;;;;;;2.82;100.00;98137.33;110413;1241;59669;-62
2024/02/02 10:15:14;;;;;;;;;;;;;;;2.81;100.00;98133.21;110411;1237;71384;-62
2024/02/02 10:17:43;;;;;;;;;;;;;;;2.81;100.00;98131.66;110397;1241;69713;-62
2024/02/02 10:20:29;;;;;;;;;;;;;;;2.81;100.00;98127.38;110385;1240;70022;-62
2024/02/02 10:23:20;;;;;;;;;;;;;;;2.79;100.00;98127.61;110373;1241;59754;-62
2024/02/02 10:26:05;;;;;;;;;;;;;;;2.84;100.00;98130.55;110368;1240;59647;-62
2024/02/02 10:28:52;;;;;;;;;;;;;;;2.93;100.00;98125.29;110394;1241;70404;-63
2024/02/02 10:31:54;;;;;;;;;;;;;;;3.08;100.00;98122.05;110368;1237;69690;-62
2024/02/02 10:34:52;;;;;;;;;;;;;;;3.04;100.00;98120.47;110172;1241;68535;-62
2024/02/02 10:37:47;;;;;;;;;;;;;;;3.29;100.00;98119.51;110356;1237;60152;-63
2024/02/02 10:40:28;;;;;;;;;;;;;;;3.36;100.00;98120.98;110474;1237;59667;-63
2024/02/02 10:43:01;;;;;;;;;;;;;;;3.46;100.00;98122.05;110506;1238;71788;-63
2024/02/02 10:45:41;;;;;;;;;;;;;;;3.56;100.00;98121.86;110320;1240;69209;-62
2024/02/02 10:48:15;;;;;;;;;;;;;;;3.54;100.00;98129.00;110619;1237;69129;-62
2024/02/02 10:50:47;;;;;;;;;;;;;;;3.54;100.00;98125.91;110580;1237;59735;-63
2024/02/02 10:53:36;;;;;;;;;;;;;;;3.49;100.00;98123.48;110407;1238;59628;-62
2024/02/02 10:56:22;;;;;;;;;;;;;;;3.48;100.00;98126.96;110088;1244;71197;-62
2024/02/02 10:59:03;;;;;;;;;;;;;;;3.42;100.00;98126.30;110544;1238;69435;-62
2024/02/02 11:01:52;;;;;;;;;;;;;;;3.33;100.00;98127.13;110441;1240;70354;-62
2024/02/02 11:04:39;;;;;;;;;;;;;;;3.23;100.00;98128.13;110441;1239;59719;-62
2024/02/02 11:07:12;;;;;;;;;;;;;;;3.11;100.00;98127.13;110426;1239;59666;-63
2024/02/02 11:09:52;;;;;;;;;;;;;;;3.29;100.00;98125.00;110467;1240;71875;-62
2024/02/02 11:12:25;;;;;;;;;;;;;;;3.42;100.00;98116.99;110403;1240;68834;-63
2024/02/02 11:15:12;;;;;;;;;;;;;;;3.58;100.00;98116.99;109923;1240;603492;-63
2024/02/02 11:18:04;;;;;;;;;;;;;;;3.74;100.00;98117.98;110318;1241;59680;-62
2024/02/02 11:20:52;;;;;;;;;;;;;;;3.83;100.00;98113.72;110428;1238;59625;-61
2024/02/02 11:23:38;;;;;;;;;;;;;;;3.79;100.00;98116.13;110569;1238;71752;-64
2024/02/02 11:26:36;;;;;;;;;;;;;;;3.64;100.00;98113.33;110521;1239;69887;-64
2024/02/02 11:29:06;;;;;;;;;;;;;;;3.60;100.00;98114.33;110313;1239;69141;-63
2024/02/02 11:31:45;;;;;;;;;;;;;;;3.59;100.00;98111.95;110468;1240;59801;-63
2024/02/02 11:34:30;;;;;;;;;;;;;;;3.61;100.00;98110.00;110564;1238;59728;-63
2024/02/02 11:37:22;;;;;;;;;;;;;;;3.63;100.00;98109.25;110571;1238;70534;-63
2024/02/02 11:39:54;;;;;;;;;;;;;;;3.82;100.00;98103.77;110283;1237;69494;-63
2024/02/02 11:42:24;;;;;;;;;;;;;;;4.03;100.00;98103.54;110593;1239;69834;-63
2024/02/02 11:44:56;;;;;;;;;;;;;;;4.25;100.00;98103.77;110639;1238;59676;-62
2024/02/02 11:47:25;;;;;;;;;;;;;;;4.41;100.00;98102.15;110466;1238;59699;-63
2024/02/02 11:50:14;;;;;;;;;;;;;;;4.40;100.00;98097.53;110564;1239;70689;-63
2024/02/02 11:52:47;;;;;;;;;;;;;;;4.50;100.00;98097.86;110765;1239;70185;-63
2024/02/02 11:55:39;;;;;;;;;;;;;;;4.49;100.00;98100.50;110734;1245;69855;-63
2024/02/02 11:58:09;;;;;;;;;;;;;;;4.40;100.00;98099.80;110674;1239;59980;-63
2024/02/02 12:00:47;;;;;;;;;;;;;;;4.38;100.00;98102.96;110598;1247;59922;-63
2024/02/02 12:03:29;;;;;;;;;;;;;;;4.32;100.00;98099.73;110593;1239;70225;-63
2024/02/02 12:06:13;;;;;;;;;;;;;;;4.42;100.00;98097.29;110553;1239;69715;-63
2024/02/02 12:09:02;;;;;;;;;;;;;;;4.38;100.00;98096.41;110600;1240;69739;-63
2024/02/02 12:11:36;;;;;;;;;;;;;;;4.36;100.00;98095.79;110340;1240;59732;-63
2024/02/02 12:14:18;;;;;;;;;;;;;;;4.34;100.00;98098.30;110427;1239;59673;-62
2024/02/02 12:16:48;;;;;;;;;;;;;;;4.30;100.00;98095.33;110449;1239;71954;-62
2024/02/02 12:19:17;;;;;;;;;;;;;;;4.21;100.00;98094.80;110457;1239;69366;-63
2024/02/02 12:21:47;;;;;;;;;;;;;;;4.12;100.00;98097.00;110436;1241;69359;-62
2024/02/02 12:24:16;;;;;;;;;;;;;;;4.13;100.00;98096.65;110531;1242;60100;-62
2024/02/02 12:26:46;;;;;;;;;;;;;;;4.02;100.00;98099.09;110488;1240;59633;-63
2024/02/02 12:29:17;;;;;;;;;;;;;;;3.94;100.00;98094.73;110536;1239;70438;-62
2024/02/02 12:31:46;;;;;;;;;;;;;;;3.91;100.00;98096.06;110526;1240;69365;-62
2024/02/02 12:34:15;;;;;;;;;;;;;;;3.97;100.00;98095.98;110438;1241;69372;-63
2024/02/02 12:36:44;;;;;;;;;;;;;;;3.93;100.00;98095.81;110530;1239;59767;-62
2024/02/02 12:39:13;;;;;;;;;;;;;;;3.90;100.00;98095.55;110435;1242;59602;-62
2024/02/02 12:41:42;;;;;;;;;;;;;;;3.86;100.00;98096.73;110499;1241;70521;-62
2024/02/02 12:44:11;;;;;;;;;;;;;;;3.72;100.00;98095.81;110404;1238;69312;-62
2024/02/02 12:46:42;;;;;;;;;;;;;;;3.65;100.00;98099.85;110357;1240;69159;-62
2024/02/02 12:49:11;;;;;;;;;;;;;;;3.55;100.00;98095.37;110362;1240;59668;-62
2024/02/02 12:51:40;;;;;;;;;;;;;;;3.51;100.00;98098.80;110514;1241;59686;-62
2024/02/02 12:54:10;;;;;;;;;;;;;;;3.46;100.00;98097.05;110489;1238;71956;-62
2024/02/02 12:56:39;;;;;;;;;;;;;;;3.40;100.00;98100.71;110444;1238;69067;-62